CheckWX is a tool to help pilots better visualize weather data.  It is not intended as a substitute for an official pre-flight weather briefing.

19:41:16 UTC

LIBA METAR
Amendola Airport
Foggia, Italy
Current

46 mins ago

LIBA 211855Z 18003KT CAVOK 19/15 Q1021 RMK SKC VIS MIN 9999 WIND THR11 17003KT WIND THR29 /////KT BLU
Observed
Sep-21 @ 18:55 UTC
Wind
  • 180° at 3 KTS
Visibility
10,000+ meters
Flight Rules
VFR
Cloud Levels
  • Clear skies
Temperature
19°C / 66°F
Dewpoint
15°C / 59°F
Humidity
78%
Altimeter
30.15" Hg
Pressure
1020.92 hPa
Previous

2 hours ago

LIBA 211755Z 10004KT CAVOK 20/14 Q1021 RMK SKC VIS MIN 9999 WIND THR11 10005KT WIND THR29 /////KT BLU
Observed
Sep-21 @ 17:55 UTC
Wind
  • 100° at 4 KTS
Visibility
10,000+ meters
Flight Rules
VFR
Cloud Levels
  • Clear skies
Temperature
20°C / 68°F
Dewpoint
14°C / 57°F
Humidity
69%
Altimeter
30.15" Hg
Pressure
1020.92 hPa
Previous

3 hours ago

LIBA 211655Z 09006KT CAVOK 21/13 Q1021 RMK BKN BKN200 VIS MIN 9999 WIND THR11 09007KT WIND THR29 /////KT BLU
Observed
Sep-21 @ 16:55 UTC
Wind
  • 090° at 6 KTS
Visibility
10,000+ meters
Flight Rules
VFR
Cloud Levels
  • Clear skies
Temperature
21°C / 70°F
Dewpoint
13°C / 55°F
Humidity
60%
Altimeter
30.15" Hg
Pressure
1020.92 hPa